createdAt,value
2022-09-26T00:01:57.272Z,16.01
2022-09-26T00:04:26.028Z,15.97
2022-09-26T00:06:49.890Z,15.99
2022-09-26T00:09:16.234Z,15.99
2022-09-26T00:11:42.570Z,15.91
2022-09-26T00:14:08.890Z,15.90
2022-09-26T00:16:35.381Z,15.87
2022-09-26T00:19:01.566Z,15.81
2022-09-26T00:21:27.906Z,15.75
2022-09-26T00:23:54.245Z,15.73
2022-09-26T00:26:20.582Z,15.71
2022-09-26T00:28:46.905Z,15.70
2022-09-26T00:31:13.308Z,15.69
2022-09-26T00:33:39.573Z,15.70
2022-09-26T00:36:05.886Z,15.69
2022-09-26T00:38:32.208Z,15.67
2022-09-26T00:40:58.650Z,15.63
2022-09-26T00:43:24.868Z,15.64
2022-09-26T00:45:51.207Z,15.66
2022-09-26T00:48:17.530Z,15.71
2022-09-26T00:50:43.843Z,15.67
2022-09-26T00:53:10.166Z,15.63
2022-09-26T00:55:36.484Z,15.61
2022-09-26T00:58:02.848Z,15.58
2022-09-26T01:00:29.161Z,15.61
2022-09-26T01:02:55.509Z,15.56
2022-09-26T01:05:21.822Z,15.54
2022-09-26T01:07:48.146Z,15.56
2022-09-26T01:10:14.488Z,15.55
2022-09-26T01:12:40.827Z,15.54
2022-09-26T01:15:07.161Z,15.55
2022-09-26T01:17:33.505Z,15.55
2022-09-26T01:19:59.816Z,15.55
2022-09-26T01:22:26.176Z,15.58
2022-09-26T01:24:52.516Z,15.58
2022-09-26T01:27:18.859Z,15.55
2022-09-26T01:29:45.193Z,15.49
2022-09-26T01:32:11.541Z,15.46
2022-09-26T01:34:37.896Z,15.42
2022-09-26T01:37:04.240Z,15.37
2022-09-26T01:39:30.554Z,15.34
2022-09-26T01:41:56.879Z,15.33
2022-09-26T01:44:23.218Z,15.33
2022-09-26T01:46:49.560Z,15.32
2022-09-26T01:49:15.908Z,15.33
2022-09-26T01:51:42.215Z,15.39
2022-09-26T01:54:08.539Z,15.39
2022-09-26T01:56:34.886Z,15.31
2022-09-26T01:59:01.218Z,15.27
2022-09-26T02:01:27.658Z,15.24
2022-09-26T02:03:53.892Z,15.26
2022-09-26T02:06:20.216Z,15.29
2022-09-26T02:08:46.535Z,15.27
2022-09-26T02:11:12.893Z,15.24
2022-09-26T02:13:39.230Z,15.25
2022-09-26T02:16:05.624Z,15.25
2022-09-26T02:18:31.893Z,15.27
2022-09-26T02:20:58.277Z,15.28
2022-09-26T02:23:24.604Z,15.26
2022-09-26T02:25:50.949Z,15.22
2022-09-26T02:28:17.291Z,15.21
2022-09-26T02:30:43.634Z,15.21
2022-09-26T02:33:09.969Z,15.17
2022-09-26T02:35:36.306Z,15.14
2022-09-26T02:38:02.624Z,15.13
2022-09-26T02:40:29.021Z,15.14
2022-09-26T02:42:55.299Z,15.13
2022-09-26T02:45:21.624Z,15.14
2022-09-26T02:47:47.942Z,15.17
2022-09-26T02:50:15.251Z,15.21
2022-09-26T02:52:40.625Z,15.27
2022-09-26T02:55:06.967Z,15.31
2022-09-26T02:57:33.281Z,15.32
2022-09-26T02:59:59.659Z,15.28
2022-09-26T03:02:26.001Z,15.28
2022-09-26T03:04:52.348Z,15.24
2022-09-26T03:07:18.685Z,15.21
2022-09-26T03:09:45.025Z,15.21
2022-09-26T03:12:11.359Z,15.24
2022-09-26T03:14:37.709Z,15.24
2022-09-26T03:17:04.054Z,15.19
2022-09-26T03:19:30.388Z,15.16
2022-09-26T03:21:56.746Z,15.12
2022-09-26T03:24:23.086Z,15.08
2022-09-26T03:26:49.425Z,15.06
2022-09-26T03:29:15.793Z,15.07
2022-09-26T03:31:42.155Z,15.07
2022-09-26T03:34:08.450Z,15.02
2022-09-26T03:36:34.826Z,14.99
2022-09-26T03:39:01.167Z,14.95
2022-09-26T03:41:27.481Z,14.90
2022-09-26T03:43:53.840Z,14.87
2022-09-26T03:46:20.182Z,14.87
2022-09-26T03:48:46.512Z,14.86
2022-09-26T03:51:12.835Z,14.90
2022-09-26T03:53:39.192Z,14.95
2022-09-26T03:56:05.538Z,14.98
2022-09-26T03:58:31.855Z,14.91
2022-09-26T04:00:58.232Z,14.87
2022-09-26T04:03:24.519Z,14.85
2022-09-26T04:05:50.876Z,14.82
2022-09-26T04:08:17.195Z,14.77
2022-09-26T04:10:43.536Z,14.77
2022-09-26T04:13:09.876Z,14.80
2022-09-26T04:15:36.194Z,14.80
2022-09-26T04:18:02.532Z,14.82
2022-09-26T04:20:28.872Z,14.84
2022-09-26T04:22:55.274Z,14.87
2022-09-26T04:25:21.586Z,14.86
2022-09-26T04:27:47.909Z,14.83
2022-09-26T04:30:14.266Z,14.84
2022-09-26T04:32:40.597Z,14.85
2022-09-26T04:35:06.914Z,14.87
2022-09-26T04:37:33.241Z,14.90
2022-09-26T04:39:59.578Z,15.02
2022-09-26T04:42:25.899Z,15.12
2022-09-26T04:44:52.255Z,15.21
2022-09-26T04:47:18.572Z,15.31
2022-09-26T04:49:44.913Z,15.40
2022-09-26T04:52:11.255Z,15.48
2022-09-26T04:54:37.628Z,15.53
2022-09-26T04:57:03.942Z,15.56
2022-09-26T04:59:30.265Z,15.60
2022-09-26T05:01:56.618Z,15.65
2022-09-26T05:04:27.494Z,15.69
2022-09-26T05:06:49.274Z,15.72
2022-09-26T05:09:15.627Z,15.75
2022-09-26T05:11:41.972Z,15.72
2022-09-26T05:14:08.285Z,15.62
2022-09-26T05:16:34.654Z,15.54
2022-09-26T05:19:00.942Z,15.50
2022-09-26T05:21:27.265Z,15.47
2022-09-26T05:23:53.605Z,15.43
2022-09-26T05:26:19.962Z,15.42
2022-09-26T05:28:46.275Z,15.43
2022-09-26T05:31:12.669Z,15.44
2022-09-26T05:33:38.995Z,15.51
2022-09-26T05:36:05.318Z,15.80
2022-09-26T05:38:31.635Z,15.97
2022-09-26T05:40:58.090Z,16.01
2022-09-26T05:43:24.324Z,16.04
2022-09-26T05:45:50.648Z,16.08
2022-09-26T05:48:16.968Z,16.08
2022-09-26T05:50:43.795Z,16.09
2022-09-26T05:53:09.667Z,16.05
2022-09-26T05:55:35.991Z,16.05
2022-09-26T05:58:02.313Z,16.06
2022-09-26T06:00:28.742Z,16.04
2022-09-26T06:02:54.984Z,16.03
2022-09-26T06:05:21.316Z,16.03
2022-09-26T06:07:47.639Z,16.02
2022-09-26T06:10:13.970Z,15.98
2022-09-26T06:12:40.327Z,16.00
2022-09-26T06:15:06.678Z,16.10
2022-09-26T06:17:33.014Z,16.44
2022-09-26T06:19:59.358Z,16.55
2022-09-26T06:22:25.713Z,16.59
2022-09-26T06:24:52.060Z,16.59
2022-09-26T06:27:18.394Z,16.64
2022-09-26T06:29:44.750Z,16.76
2022-09-26T06:32:11.163Z,17.08
2022-09-26T06:34:37.413Z,17.23
2022-09-26T06:37:03.733Z,17.40
2022-09-26T06:39:30.083Z,17.69
2022-09-26T06:41:56.401Z,17.74
2022-09-26T06:44:22.744Z,17.74
2022-09-26T06:46:49.117Z,17.93
2022-09-26T06:49:15.434Z,18.36
2022-09-26T06:51:41.725Z,18.80
2022-09-26T06:54:08.061Z,19.12
2022-09-26T06:56:34.418Z,19.31
2022-09-26T06:59:00.739Z,19.47
2022-09-26T07:01:27.194Z,19.79
2022-09-26T07:03:54.511Z,20.12
2022-09-26T07:06:19.747Z,20.41
2022-09-26T07:09:03.361Z,20.72
2022-09-26T07:13:38.794Z,21.17
2022-09-26T07:16:05.165Z,21.39
2022-09-26T07:18:31.470Z,21.63
2022-09-26T07:20:57.788Z,21.76
2022-09-26T07:23:24.129Z,21.93
2022-09-26T07:25:50.437Z,22.14
2022-09-26T07:28:16.776Z,22.41
2022-09-26T07:30:43.116Z,22.32
2022-09-26T07:33:09.430Z,22.18
2022-09-26T07:35:35.773Z,22.14
2022-09-26T07:38:02.138Z,22.16
2022-09-26T07:40:28.551Z,22.24
2022-09-26T07:43:18.097Z,22.16
2022-09-26T07:45:29.032Z,22.09
2022-09-26T07:47:47.532Z,22.28
2022-09-26T07:50:13.871Z,22.55
2022-09-26T07:52:40.208Z,23.13
2022-09-26T07:55:06.530Z,23.57
2022-09-26T07:57:32.850Z,23.94
2022-09-26T07:59:59.171Z,24.52
2022-09-26T08:02:25.690Z,24.84
2022-09-26T08:04:51.847Z,25.04
2022-09-26T08:07:18.170Z,25.38
2022-09-26T08:09:44.500Z,25.60
2022-09-26T08:12:10.839Z,25.81
2022-09-26T08:14:37.161Z,26.09
2022-09-26T08:17:03.491Z,26.35
2022-09-26T08:19:29.813Z,26.62
2022-09-26T08:21:56.136Z,26.87
2022-09-26T08:24:22.518Z,26.89
2022-09-26T08:26:48.835Z,26.94
2022-09-26T08:29:15.156Z,27.09
2022-09-26T08:31:41.631Z,27.28
2022-09-26T08:34:07.843Z,27.41
2022-09-26T08:36:34.183Z,27.56
2022-09-26T08:39:00.526Z,27.63
2022-09-26T08:41:26.894Z,27.81
2022-09-26T08:43:53.233Z,27.86
2022-09-26T08:46:19.583Z,27.80
2022-09-26T08:48:45.895Z,27.50
2022-09-26T08:51:12.213Z,27.50
2022-09-26T08:53:38.558Z,27.76
2022-09-26T08:56:04.896Z,28.15
2022-09-26T08:58:31.215Z,28.49
2022-09-26T09:00:57.564Z,28.81
2022-09-26T09:03:23.887Z,29.07
2022-09-26T09:05:50.224Z,29.24
2022-09-26T09:08:16.598Z,29.35
2022-09-26T09:10:42.935Z,29.57
2022-09-26T09:13:09.256Z,29.87
2022-09-26T09:15:35.652Z,30.18
2022-09-26T09:18:01.985Z,30.45
2022-09-26T09:20:28.343Z,30.74
2022-09-26T09:22:54.681Z,31.00
2022-09-26T09:25:21.040Z,31.23
2022-09-26T09:27:54.773Z,31.42
2022-09-26T09:30:17.545Z,31.34
2022-09-26T09:32:40.049Z,30.94
2022-09-26T09:35:06.397Z,30.57
2022-09-26T09:37:32.714Z,30.31
2022-09-26T09:39:59.032Z,30.32
2022-09-26T09:42:25.381Z,30.31
2022-09-26T09:44:51.694Z,30.45
2022-09-26T09:47:18.042Z,30.63
2022-09-26T09:49:44.384Z,30.84
2022-09-26T09:52:10.714Z,30.95
2022-09-26T09:54:37.067Z,31.17
2022-09-26T09:57:03.386Z,31.37
2022-09-26T09:59:29.716Z,31.51
2022-09-26T10:01:56.055Z,31.62
2022-09-26T10:04:22.401Z,31.75
2022-09-26T10:06:48.749Z,31.89
2022-09-26T10:09:37.501Z,31.95
2022-09-26T10:11:41.457Z,32.08
2022-09-26T10:14:07.784Z,32.29
2022-09-26T10:16:34.191Z,32.46
2022-09-26T10:19:03.351Z,32.65
2022-09-26T10:21:26.766Z,32.74
2022-09-26T10:23:53.137Z,32.76
2022-09-26T10:26:19.477Z,32.81
2022-09-26T10:28:45.793Z,32.76
2022-09-26T10:31:12.188Z,32.71
2022-09-26T10:33:38.493Z,32.77
2022-09-26T10:36:04.817Z,32.95
2022-09-26T10:38:31.156Z,33.19
2022-09-26T10:40:57.581Z,33.43
2022-09-26T10:43:23.817Z,33.51
2022-09-26T10:45:50.164Z,33.47
2022-09-26T10:48:16.477Z,33.34
2022-09-26T10:50:42.825Z,33.07
2022-09-26T10:53:09.169Z,32.88
2022-09-26T10:55:35.483Z,32.77
2022-09-26T10:58:01.834Z,32.71
2022-09-26T11:00:28.152Z,32.52
2022-09-26T11:02:54.497Z,32.22
2022-09-26T11:05:20.840Z,31.95
2022-09-26T11:07:47.156Z,31.91
2022-09-26T11:10:13.547Z,31.92
2022-09-26T11:12:39.842Z,31.92
2022-09-26T11:15:06.157Z,31.93
2022-09-26T11:17:32.479Z,31.93
2022-09-26T11:19:58.859Z,31.89
2022-09-26T11:22:25.171Z,31.87
2022-09-26T11:24:51.495Z,31.84
2022-09-26T11:27:17.830Z,31.80
2022-09-26T11:29:44.176Z,31.84
2022-09-26T11:32:10.509Z,31.83
2022-09-26T11:34:36.834Z,31.79
2022-09-26T11:37:03.153Z,31.76
2022-09-26T11:39:29.477Z,31.74
2022-09-26T11:41:55.854Z,31.74
2022-09-26T11:44:22.198Z,31.80
2022-09-26T11:46:48.608Z,31.91
2022-09-26T11:49:14.875Z,31.99
2022-09-26T11:51:41.194Z,31.98
2022-09-26T11:54:07.517Z,31.94
2022-09-26T11:56:33.873Z,31.91
2022-09-26T11:59:00.215Z,31.92
2022-09-26T12:01:26.529Z,31.97
2022-09-26T12:03:52.988Z,31.98
2022-09-26T12:06:19.246Z,31.98
2022-09-26T12:08:45.600Z,31.93
2022-09-26T12:11:11.921Z,31.88
2022-09-26T12:13:38.246Z,31.80
2022-09-26T12:16:04.661Z,31.65
2022-09-26T12:18:30.937Z,31.48
2022-09-26T12:20:57.277Z,31.23
2022-09-26T12:23:23.653Z,30.97
2022-09-26T12:25:49.967Z,30.67
2022-09-26T12:28:16.291Z,30.40
2022-09-26T12:30:42.676Z,30.24
2022-09-26T12:33:08.977Z,30.12
2022-09-26T12:35:35.350Z,30.02
2022-09-26T12:38:01.717Z,29.95
2022-09-26T12:40:28.107Z,29.90
2022-09-26T12:42:54.358Z,29.83
2022-09-26T12:45:20.720Z,29.80
2022-09-26T12:47:47.071Z,29.77
2022-09-26T12:50:13.410Z,29.70
2022-09-26T12:52:39.767Z,29.64
2022-09-26T12:55:06.107Z,29.54
2022-09-26T12:57:32.425Z,29.42
2022-09-26T12:59:58.747Z,29.33
2022-09-26T13:02:25.184Z,29.25
2022-09-26T13:04:51.414Z,29.16
2022-09-26T13:07:19.783Z,29.09
2022-09-26T13:09:44.093Z,29.01
2022-09-26T13:12:10.419Z,28.90
2022-09-26T13:14:36.759Z,28.82
2022-09-26T13:17:03.084Z,28.73
2022-09-26T13:19:29.456Z,28.66
2022-09-26T13:21:55.771Z,28.59
2022-09-26T13:24:22.123Z,28.53
2022-09-26T13:26:48.473Z,28.46
2022-09-26T13:29:18.454Z,28.40
2022-09-26T13:31:41.245Z,28.33
2022-09-26T13:34:07.477Z,28.25
2022-09-26T13:36:33.819Z,28.16
2022-09-26T13:39:00.156Z,28.06
2022-09-26T13:41:26.502Z,27.95
2022-09-26T13:43:52.837Z,27.89
2022-09-26T13:46:19.232Z,27.83
2022-09-26T13:48:45.498Z,27.76
2022-09-26T13:51:11.824Z,27.67
2022-09-26T13:53:38.152Z,27.57
2022-09-26T13:56:04.499Z,27.50
2022-09-26T13:58:30.851Z,27.46
2022-09-26T14:00:57.192Z,27.41
2022-09-26T14:03:23.660Z,27.37
2022-09-26T14:05:49.889Z,27.32
2022-09-26T14:08:16.200Z,27.28
2022-09-26T14:10:42.547Z,27.22
2022-09-26T14:13:08.867Z,27.17
2022-09-26T14:15:35.254Z,27.12
2022-09-26T14:18:01.536Z,27.04
2022-09-26T14:20:27.915Z,26.95
2022-09-26T14:22:54.260Z,26.88
2022-09-26T14:25:20.598Z,26.86
2022-09-26T14:27:46.937Z,26.82
2022-09-26T14:30:13.278Z,26.76
2022-09-26T14:32:39.619Z,26.68
2022-09-26T14:35:05.977Z,26.62
2022-09-26T14:37:32.294Z,26.54
2022-09-26T14:39:58.655Z,26.48
2022-09-26T14:42:24.974Z,26.42
2022-09-26T14:44:51.300Z,26.37
2022-09-26T14:47:17.659Z,26.32
2022-09-26T14:49:43.979Z,26.27
2022-09-26T14:52:11.387Z,26.22
2022-09-26T14:54:36.680Z,26.20
2022-09-26T14:57:03.001Z,26.15
2022-09-26T14:59:29.342Z,26.08
2022-09-26T15:01:55.728Z,26.01
2022-09-26T15:04:22.055Z,25.97
2022-09-26T15:06:48.380Z,25.92
2022-09-26T15:09:14.728Z,25.88
2022-09-26T15:11:41.045Z,25.84
2022-09-26T15:14:07.439Z,25.77
2022-09-26T15:16:33.731Z,25.72
2022-09-26T15:19:00.075Z,25.68
2022-09-26T15:21:26.399Z,25.64
2022-09-26T15:23:52.738Z,25.60
2022-09-26T15:26:19.060Z,25.55
2022-09-26T15:28:45.461Z,25.51
2022-09-26T15:31:11.831Z,25.46
2022-09-26T15:33:38.102Z,25.43
2022-09-26T15:36:04.449Z,25.40
2022-09-26T15:38:30.816Z,25.38
2022-09-26T15:40:57.229Z,25.34
2022-09-26T15:43:23.468Z,25.30
2022-09-26T15:45:49.862Z,25.26
2022-09-26T15:48:16.114Z,25.23
2022-09-26T15:50:42.431Z,25.19
2022-09-26T15:53:08.757Z,25.15
2022-09-26T15:55:35.095Z,25.11
2022-09-26T15:58:01.439Z,25.07
2022-09-26T16:00:27.776Z,25.04
2022-09-26T16:02:54.209Z,25.01
2022-09-26T16:05:20.464Z,24.97
2022-09-26T16:07:46.783Z,24.94
2022-09-26T16:10:13.138Z,24.89
2022-09-26T16:12:39.460Z,24.85
2022-09-26T16:15:05.819Z,24.82
2022-09-26T16:17:32.125Z,24.79
2022-09-26T16:19:58.461Z,24.77
2022-09-26T16:22:24.784Z,24.74
2022-09-26T16:24:51.127Z,24.72
2022-09-26T16:27:17.479Z,24.68
2022-09-26T16:29:43.817Z,24.67
2022-09-26T16:32:10.176Z,24.64
2022-09-26T16:34:36.523Z,24.60
2022-09-26T16:37:02.855Z,24.57
2022-09-26T16:39:29.169Z,24.54
2022-09-26T16:42:03.691Z,24.52
2022-09-26T16:44:27.444Z,24.49
2022-09-26T16:46:48.232Z,24.46
2022-09-26T16:49:14.547Z,24.43
2022-09-26T16:51:40.884Z,24.41
2022-09-26T16:54:07.333Z,24.39
2022-09-26T16:56:33.582Z,24.37
2022-09-26T16:58:59.894Z,24.34
2022-09-26T17:01:26.319Z,24.31
2022-09-26T17:03:55.027Z,24.30
2022-09-26T17:06:21.370Z,24.27
2022-09-26T17:08:47.723Z,24.26
2022-09-26T17:11:14.039Z,24.23
2022-09-26T17:13:40.360Z,24.19
2022-09-26T17:16:06.790Z,24.16
2022-09-26T17:18:33.215Z,24.14
2022-09-26T17:20:59.429Z,24.11
2022-09-26T17:23:39.933Z,24.08
2022-09-26T17:25:57.411Z,24.04
2022-09-26T17:28:18.909Z,23.99
2022-09-26T17:30:45.392Z,23.96
2022-09-26T17:33:11.703Z,23.96
2022-09-26T17:35:38.116Z,23.89
2022-09-26T17:38:04.708Z,23.82
2022-09-26T17:40:31.138Z,23.74
2022-09-26T17:42:57.433Z,23.68
2022-09-26T17:45:23.749Z,23.66
2022-09-26T17:47:50.091Z,23.60
2022-09-26T17:50:16.478Z,23.52
2022-09-26T17:52:42.799Z,23.47
2022-09-26T17:55:09.139Z,23.43
2022-09-26T17:57:41.470Z,23.38
2022-09-26T18:00:01.824Z,23.32
2022-09-26T18:02:28.208Z,23.26
2022-09-26T18:04:54.496Z,23.19
2022-09-26T18:07:20.837Z,23.17
2022-09-26T18:09:47.153Z,23.11
2022-09-26T18:12:13.685Z,23.04
2022-09-26T18:14:40.051Z,23.01
2022-09-26T18:17:06.584Z,23.00
2022-09-26T18:19:32.907Z,22.99
2022-09-26T18:21:59.427Z,22.90
2022-09-26T18:24:25.929Z,22.86
2022-09-26T18:26:52.463Z,22.80
2022-09-26T18:29:19.015Z,22.77
2022-09-26T18:31:45.620Z,22.73
2022-09-26T18:34:12.145Z,22.70
2022-09-26T18:36:38.427Z,22.66
2022-09-26T18:39:04.921Z,22.64
2022-09-26T18:41:31.254Z,22.60
2022-09-26T18:43:57.568Z,22.56
2022-09-26T18:46:24.154Z,22.54
2022-09-26T18:48:50.410Z,22.50
2022-09-26T18:51:16.763Z,22.50
2022-09-26T18:53:43.200Z,22.48
2022-09-26T18:56:09.541Z,22.48
2022-09-26T18:58:36.043Z,22.45
2022-09-26T19:01:02.829Z,22.42
2022-09-26T19:03:28.923Z,22.39
2022-09-26T19:05:55.293Z,22.39
2022-09-26T19:08:21.788Z,22.39
2022-09-26T19:10:48.293Z,22.35
2022-09-26T19:13:14.802Z,22.31
2022-09-26T19:15:41.151Z,22.28
2022-09-26T19:18:07.442Z,22.25
2022-09-26T19:20:33.767Z,22.22
2022-09-26T19:23:00.112Z,22.21
2022-09-26T19:25:26.448Z,22.17
2022-09-26T19:27:52.812Z,22.15
2022-09-26T19:30:19.128Z,22.11
2022-09-26T19:32:45.458Z,22.07
2022-09-26T19:35:11.792Z,22.01
2022-09-26T19:37:38.180Z,21.95
2022-09-26T19:40:04.522Z,21.92
2022-09-26T19:42:30.832Z,21.87
2022-09-26T19:44:57.186Z,21.81
2022-09-26T19:47:23.513Z,21.78
2022-09-26T19:49:49.910Z,21.74
2022-09-26T19:52:16.247Z,21.69
2022-09-26T19:54:42.559Z,21.67
2022-09-26T19:57:08.902Z,21.66
2022-09-26T19:59:35.415Z,21.61
2022-09-26T20:02:01.850Z,21.57
2022-09-26T20:04:28.102Z,21.52
2022-09-26T20:06:54.426Z,21.49
2022-09-26T20:09:20.750Z,21.46
2022-09-26T20:11:47.073Z,21.40
2022-09-26T20:14:13.418Z,21.37
2022-09-26T20:16:39.799Z,21.36
2022-09-26T20:19:06.107Z,21.34
2022-09-26T20:21:32.431Z,21.31
2022-09-26T20:23:58.763Z,21.28
2022-09-26T20:26:25.107Z,21.28
2022-09-26T20:28:51.417Z,21.24
2022-09-26T20:31:17.834Z,21.21
2022-09-26T20:33:44.121Z,21.19
2022-09-26T20:36:10.448Z,21.16
2022-09-26T20:38:36.802Z,21.13
2022-09-26T20:41:03.258Z,21.11
2022-09-26T20:43:29.492Z,21.09
2022-09-26T20:45:55.824Z,21.07
2022-09-26T20:48:22.134Z,21.01
2022-09-26T20:50:48.452Z,20.97
2022-09-26T20:53:14.786Z,20.94
2022-09-26T20:55:44.119Z,20.90
2022-09-26T20:58:07.467Z,20.89
2022-09-26T21:00:33.802Z,20.88
2022-09-26T21:03:00.189Z,20.88
2022-09-26T21:05:26.441Z,20.87
2022-09-26T21:07:52.803Z,20.84
2022-09-26T21:10:19.154Z,20.81
2022-09-26T21:20:40.275Z,20.64
2022-09-26T21:23:06.620Z,20.66
2022-09-26T21:25:33.010Z,20.64
2022-09-26T21:27:59.337Z,20.64
2022-09-26T21:30:25.789Z,20.62
2022-09-26T21:32:52.037Z,20.61
2022-09-26T21:35:18.366Z,20.60
2022-09-26T21:37:44.724Z,20.61
2022-09-26T21:40:11.077Z,20.58
2022-09-26T21:42:37.424Z,20.56
2022-09-26T21:45:03.770Z,20.56
2022-09-26T21:47:30.112Z,20.53
2022-09-26T21:49:56.435Z,20.51
2022-09-26T21:52:22.768Z,20.49
2022-09-26T21:54:49.099Z,20.45
2022-09-26T21:57:15.416Z,20.44
2022-09-26T21:59:41.736Z,20.42
2022-09-26T22:02:08.126Z,20.39
2022-09-26T22:04:34.486Z,20.33
2022-09-26T22:07:00.835Z,20.30
2022-09-26T22:09:27.175Z,20.27
2022-09-26T22:11:53.504Z,20.26
2022-09-26T22:14:19.812Z,20.27
2022-09-26T22:16:46.175Z,20.26
2022-09-26T22:19:12.567Z,20.24
2022-09-26T22:21:38.830Z,20.22
2022-09-26T22:24:05.170Z,20.19
2022-09-26T22:26:31.524Z,20.18
2022-09-26T22:28:57.845Z,20.15
2022-09-26T22:31:24.239Z,20.10
2022-09-26T22:33:50.518Z,20.08
2022-09-26T22:36:16.839Z,20.08
2022-09-26T22:38:43.166Z,20.06
2022-09-26T22:41:09.509Z,20.04
2022-09-26T22:43:35.849Z,20.00
2022-09-26T22:46:02.290Z,19.99
2022-09-26T22:48:28.525Z,19.97
2022-09-26T22:50:54.889Z,19.94
2022-09-26T22:53:21.201Z,19.91
2022-09-26T22:55:47.523Z,19.88
2022-09-26T22:58:13.878Z,19.85
2022-09-26T23:00:40.203Z,19.84
2022-09-26T23:03:06.525Z,19.84
2022-09-26T23:05:32.879Z,19.82
2022-09-26T23:07:59.198Z,19.82
2022-09-26T23:10:25.558Z,19.81
2022-09-26T23:12:51.891Z,19.77
2022-09-26T23:15:18.233Z,19.76
2022-09-26T23:17:44.554Z,19.76
2022-09-26T23:20:10.876Z,19.74
2022-09-26T23:22:37.218Z,19.73
2022-09-26T23:25:03.556Z,19.71
2022-09-26T23:27:29.871Z,19.67
2022-09-26T23:29:56.195Z,19.68
2022-09-26T23:32:22.531Z,19.67
2022-09-26T23:34:48.871Z,19.64
2022-09-26T23:37:15.195Z,19.63
2022-09-26T23:39:41.539Z,19.61
2022-09-26T23:42:07.842Z,19.61
2022-09-26T23:44:34.163Z,19.60
2022-09-26T23:47:00.505Z,19.55
2022-09-26T23:49:26.857Z,19.50
2022-09-26T23:51:53.191Z,19.47
2022-09-26T23:54:19.515Z,19.46
2022-09-26T23:56:45.827Z,19.46
2022-09-26T23:59:12.255Z,19.45
